Time;durP1;ratioP1;P1;durP2;ratioP2;P2;SDS_P1;SDS_P2;PMS_P1;PMS_P2;Temp;Humidity;BMP_temperature;BMP_pressure;BME280_temperature;BME280_humidity;BME280_pressure;Samples;Min_cycle;Max_cycle;Signal;HPM_P1;HPM_P2
2021/05/02 00:01:57;;;;;;;10.63;8.63;;;;;;;-139.48;100.00;61774.03;5026999;28;20136;-68
2021/05/02 00:04:42;;;;;;;20.13;12.35;;;;;;;-139.48;100.00;61774.03;5056301;28;20457;-68
2021/05/02 00:07:27;;;;;;;16.35;11.10;;;;;;;-139.48;100.00;61774.03;5026801;28;20079;-68
2021/05/02 00:10:12;;;;;;;16.77;11.18;;;;;;;-139.48;100.00;61774.03;5041021;28;20051;-68
2021/05/02 00:12:57;;;;;;;11.48;9.70;;;;;;;-139.48;100.00;61774.03;5040634;28;20126;-68
2021/05/02 00:15:41;;;;;;;13.15;9.75;;;;;;;-139.48;100.00;61774.03;5040919;28;20091;-68
2021/05/02 00:18:26;;;;;;;14.93;11.55;;;;;;;-139.48;100.00;61774.03;5055786;28;20098;-68
2021/05/02 00:21:11;;;;;;;11.57;8.60;;;;;;;-139.48;100.00;61774.03;5040545;28;20479;-68
2021/05/02 00:23:55;;;;;;;11.98;9.40;;;;;;;-139.48;100.00;61774.03;5040805;28;20401;-67
2021/05/02 00:26:39;;;;;;;14.55;9.48;;;;;;;-139.48;100.00;61774.03;5040680;28;20051;-68
2021/05/02 00:29:23;;;;;;;12.70;9.20;;;;;;;-139.48;100.00;61774.03;5040710;28;20615;-68
2021/05/02 00:32:08;;;;;;;13.27;9.02;;;;;;;-139.48;100.00;61774.03;5040475;28;20048;-68
2021/05/02 00:34:53;;;;;;;10.90;9.27;;;;;;;-139.48;100.00;61774.03;5039520;28;20539;-68
2021/05/02 00:37:37;;;;;;;11.77;8.88;;;;;;;-139.48;100.00;61774.03;5040196;28;20107;-68
2021/05/02 00:40:31;;;;;;;13.85;9.90;;;;;;;-139.48;100.00;61774.03;5040274;28;20413;-68
2021/05/02 00:43:26;;;;;;;17.55;11.05;;;;;;;-139.48;100.00;61774.03;5055262;28;20544;-68
2021/05/02 00:46:17;;;;;;;13.90;10.13;;;;;;;-139.48;100.00;61774.03;5040288;28;20047;-68
2021/05/02 00:49:04;;;;;;;13.65;9.65;;;;;;;-139.48;100.00;61774.03;5055161;28;20052;-68
2021/05/02 00:51:56;;;;;;;10.93;8.48;;;;;;;-139.48;100.00;61774.03;5055382;28;20083;-68
2021/05/02 00:54:45;;;;;;;11.02;8.70;;;;;;;-139.48;100.00;61774.03;5040957;28;20473;-68
2021/05/02 00:57:31;;;;;;;12.43;7.75;;;;;;;-139.48;100.00;61774.03;5040535;28;20456;-66
2021/05/02 01:00:18;;;;;;;10.55;8.48;;;;;;;-139.48;100.00;61774.03;5040188;28;20051;-68
2021/05/02 01:03:04;;;;;;;9.77;7.60;;;;;;;-139.48;100.00;61774.03;5040172;28;20051;-68
2021/05/02 01:05:48;;;;;;;10.07;6.82;;;;;;;-139.48;100.00;61774.03;5054947;28;20087;-68
2021/05/02 01:08:34;;;;;;;8.15;6.50;;;;;;;-139.48;100.00;61774.03;5054837;28;20095;-68
2021/05/02 01:11:18;;;;;;;8.40;6.72;;;;;;;-139.48;100.00;61774.03;5039918;28;20056;-68
2021/05/02 01:14:03;;;;;;;10.75;6.82;;;;;;;-139.48;100.00;61774.03;5039587;28;20056;-68
2021/05/02 01:16:48;;;;;;;7.50;6.53;;;;;;;-139.48;100.00;61774.03;5039618;28;20052;-68
2021/05/02 01:19:32;;;;;;;8.50;6.10;;;;;;;-139.48;100.00;61774.03;5054874;28;20124;-68
2021/05/02 01:22:18;;;;;;;6.95;6.22;;;;;;;-139.48;100.00;61774.03;5054805;28;20056;-68
2021/05/02 01:25:03;;;;;;;9.05;7.53;;;;;;;-139.48;100.00;61774.03;5039834;28;20425;-68
2021/05/02 01:27:49;;;;;;;;;;;;;;;-139.48;100.00;61774.03;5025915;28;20052;-68
2021/05/02 01:30:34;;;;;;;9.63;8.15;;;;;;;-139.48;100.00;61774.03;5039590;28;19919;-68
2021/05/02 01:33:18;;;;;;;9.30;6.07;;;;;;;-139.48;100.00;61774.03;5054253;28;20131;-67
2021/05/02 01:36:02;;;;;;;11.45;6.30;;;;;;;-139.48;100.00;61774.03;5054469;28;20119;-69
2021/05/02 01:38:49;;;;;;;7.03;6.00;;;;;;;-139.48;100.00;61774.03;5039533;28;20528;-67
2021/05/02 01:41:33;;;;;;;13.02;7.13;;;;;;;-139.48;100.00;61774.03;5039087;28;20052;-68
2021/05/02 01:44:16;;;;;;;7.13;6.18;;;;;;;-139.48;100.00;61774.03;5039045;28;20210;-68
2021/05/02 01:47:05;;;;;;;8.55;6.00;;;;;;;-139.48;100.00;61774.03;5039041;28;20051;-68
2021/05/02 01:49:56;;;;;;;8.50;6.32;;;;;;;-139.48;100.00;61774.03;5039162;28;20086;-67
2021/05/02 01:52:52;;;;;;;9.23;5.95;;;;;;;-139.48;100.00;61774.03;5054155;28;20539;-67
2021/05/02 01:55:38;;;;;;;9.23;5.80;;;;;;;-139.48;100.00;61774.03;5039030;28;20075;-67
2021/05/02 01:58:23;;;;;;;9.25;5.88;;;;;;;-139.48;100.00;61774.03;5054072;28;20055;-68
2021/05/02 02:01:10;;;;;;;9.30;7.47;;;;;;;-139.48;100.00;61774.03;5038719;28;20577;-68
2021/05/02 02:03:56;;;;;;;8.82;6.88;;;;;;;-139.48;100.00;61774.03;5053727;28;20110;-67
2021/05/02 02:09:30;;;;;;;6.93;6.22;;;;;;;-139.48;100.00;61774.03;5033046;28;20099;-65
2021/05/02 02:12:15;;;;;;;8.75;5.90;;;;;;;-139.48;100.00;61774.03;5032974;28;20548;-66
2021/05/02 02:14:59;;;;;;;6.68;5.97;;;;;;;-139.48;100.00;61774.03;5005074;28;20099;-65
2021/05/02 02:17:43;;;;;;;6.78;6.07;;;;;;;-139.48;100.00;61774.03;5033724;28;20568;-66
2021/05/02 02:20:29;;;;;;;6.30;5.70;;;;;;;-139.48;100.00;61774.03;5033834;28;20548;-66
2021/05/02 02:23:19;;;;;;;7.30;5.97;;;;;;;-139.48;100.00;61774.03;5018605;28;20521;-66
2021/05/02 02:26:16;;;;;;;11.02;7.80;;;;;;;-139.48;100.00;61774.03;5018530;28;20090;-66
2021/05/02 02:29:02;;;;;;;6.90;6.20;;;;;;;-139.48;100.00;61774.03;5018725;28;20044;-67
2021/05/02 02:31:49;;;;;;;9.52;6.55;;;;;;;-139.48;100.00;61774.03;5033402;28;20056;-66
2021/05/02 02:34:35;;;;;;;6.63;5.65;;;;;;;-139.48;100.00;61774.03;5004483;28;20552;-66
2021/05/02 02:37:21;;;;;;;10.27;6.80;;;;;;;-139.48;100.00;61774.03;5004426;28;20048;-65
2021/05/02 02:40:06;;;;;;;8.60;6.63;;;;;;;-139.48;100.00;61774.03;5018682;28;20052;-66
2021/05/02 02:42:51;;;;;;;7.25;6.13;;;;;;;-139.48;100.00;61774.03;5033502;28;20048;-66
2021/05/02 02:45:38;;;;;;;6.30;5.65;;;;;;;-139.48;100.00;61774.03;5018587;28;20465;-66
2021/05/02 02:48:29;;;;;;;9.95;5.95;;;;;;;-139.48;100.00;61774.03;5033132;28;20048;-66
2021/05/02 02:51:13;;;;;;;8.50;5.90;;;;;;;-139.48;100.00;61774.03;5004647;28;20136;-66
2021/05/02 02:53:58;;;;;;;8.65;5.93;;;;;;;-139.48;100.00;61774.03;5018050;28;20049;-66
2021/05/02 02:56:43;;;;;;;10.15;6.32;;;;;;;-139.48;100.00;61774.03;5004178;28;20044;-66
2021/05/02 02:59:29;;;;;;;9.23;5.78;;;;;;;-139.48;100.00;61774.03;5018179;28;20052;-66
2021/05/02 03:02:15;;;;;;;10.55;5.78;;;;;;;-139.48;100.00;61774.03;5018426;28;20406;-66
2021/05/02 03:04:59;;;;;;;8.13;6.03;;;;;;;-139.48;100.00;61774.03;5018614;28;20100;-66
2021/05/02 03:07:46;;;;;;;7.88;5.93;;;;;;;-139.48;100.00;61774.03;5017885;28;20052;-67
2021/05/02 03:10:31;;;;;;;8.93;5.50;;;;;;;-139.48;100.00;61774.03;5018385;28;20075;-66
2021/05/02 03:13:15;;;;;;;;;;;;;;;-139.48;100.00;61774.03;5004806;28;20060;-66
2021/05/02 03:16:03;;;;;;;6.43;5.70;;;;;;;-139.48;100.00;61774.03;5018248;28;20002;-66
2021/05/02 03:18:53;;;;;;;7.30;5.82;;;;;;;-139.48;100.00;61774.03;5033112;28;20094;-66
2021/05/02 03:21:52;;;;;;;6.15;5.55;;;;;;;-139.48;100.00;61774.03;5004358;28;20099;-66
2021/05/02 03:24:41;;;;;;;6.78;5.70;;;;;;;-139.48;100.00;61774.03;5033015;28;20197;-66
2021/05/02 03:27:27;;;;;;;5.45;4.95;;;;;;;-139.48;100.00;61774.03;5018082;28;20072;-66
2021/05/02 03:30:13;;;;;;;7.25;5.28;;;;;;;-139.48;100.00;61774.03;5018247;28;20051;-67
2021/05/02 03:32:59;;;;;;;7.13;5.40;;;;;;;-139.48;100.00;61774.03;5017926;28;20053;-67
2021/05/02 03:35:47;;;;;;;6.65;5.93;;;;;;;-139.48;100.00;61774.03;5018174;28;20414;-67
2021/05/02 03:38:47;;;;;;;6.03;5.43;;;;;;;-139.48;100.00;61774.03;5017986;28;20080;-66
2021/05/02 03:41:34;;;;;;;8.68;5.60;;;;;;;-139.48;100.00;61774.03;5033006;28;20048;-66
2021/05/02 03:44:18;;;;;;;9.23;6.13;;;;;;;-139.48;100.00;61774.03;5018106;28;20101;-66
2021/05/02 03:47:02;;;;;;;6.97;5.97;;;;;;;-139.48;100.00;61774.03;5032612;28;20119;-67
2021/05/02 03:49:46;;;;;;;7.10;5.47;;;;;;;-139.48;100.00;61774.03;5004162;28;20529;-66
2021/05/02 03:52:31;;;;;;;6.45;5.55;;;;;;;-139.48;100.00;61774.03;5032656;28;20460;-66
2021/05/02 03:55:15;;;;;;;12.48;5.95;;;;;;;-139.48;100.00;61774.03;5017906;28;20075;-66
2021/05/02 03:57:59;;;;;;;;;;;;;;;-139.48;100.00;61774.03;5018246;28;20517;-66
2021/05/02 04:00:44;;;;;;;9.52;6.55;;;;;;;-139.48;100.00;61774.03;5032910;28;19920;-66
2021/05/02 04:03:28;;;;;;;6.20;5.43;;;;;;;-139.48;100.00;61774.03;5017836;28;20460;-66
2021/05/02 04:06:12;;;;;;;8.95;5.25;;;;;;;-139.48;100.00;61774.03;5032755;28;20418;-66
2021/05/02 04:08:56;;;;;;;9.95;6.05;;;;;;;-139.48;100.00;61774.03;5033666;28;20414;-66
2021/05/02 04:11:41;;;;;;;8.07;5.78;;;;;;;-139.48;100.00;61774.03;5036280;28;20087;-66
2021/05/02 04:14:25;;;;;;;7.13;5.88;;;;;;;-139.48;100.00;61774.03;5020898;28;20052;-66
2021/05/02 04:17:10;;;;;;;7.15;6.10;;;;;;;-139.48;100.00;61774.03;5007207;28;20600;-66
2021/05/02 04:19:54;;;;;;;7.32;6.00;;;;;;;-139.48;100.00;61774.03;5020783;28;20048;-66
2021/05/02 04:22:38;;;;;;;10.65;6.13;;;;;;;-139.48;100.00;61774.03;5020992;28;20067;-66
2021/05/02 04:25:22;;;;;;;;;;;;;;;-139.48;100.00;61774.03;5021442;28;20453;-67
2021/05/02 04:28:06;;;;;;;9.30;6.55;;;;;;;-139.48;100.00;61774.03;5035760;28;20360;-66
2021/05/02 04:30:50;;;;;;;7.65;6.53;;;;;;;-139.48;100.00;61774.03;5035914;28;20056;-64
2021/05/02 04:33:34;;;;;;;7.65;6.78;;;;;;;-139.48;100.00;61774.03;5035546;28;20056;-66
2021/05/02 04:36:18;;;;;;;11.05;6.28;;;;;;;-139.48;100.00;61774.03;5035975;28;20423;-66
2021/05/02 04:39:03;;;;;;;7.85;6.10;;;;;;;-139.48;100.00;61774.03;5020641;28;20132;-66
2021/05/02 04:41:48;;;;;;;6.60;5.82;;;;;;;-139.48;100.00;61774.03;5020700;28;20081;-66
2021/05/02 04:44:32;;;;;;;8.55;5.85;;;;;;;-139.48;100.00;61774.03;5020371;28;20517;-66
2021/05/02 04:47:19;;;;;;;6.88;6.10;;;;;;;-139.48;100.00;61774.03;5035509;28;20052;-66
2021/05/02 04:50:04;;;;;;;7.88;6.05;;;;;;;-139.48;100.00;61774.03;5020655;28;20052;-66
2021/05/02 04:52:51;;;;;;;7.32;6.40;;;;;;;-139.48;100.00;61774.03;5035428;28;20426;-66
2021/05/02 04:55:35;;;;;;;7.03;5.75;;;;;;;-139.48;100.00;61774.03;5035174;28;20064;-66
2021/05/02 04:58:19;;;;;;;7.70;5.60;;;;;;;-139.48;100.00;61774.03;5020343;28;20115;-67
2021/05/02 05:01:03;;;;;;;12.45;6.00;;;;;;;-139.48;100.00;61774.03;5020561;28;20130;-66
2021/05/02 05:03:47;;;;;;;6.43;5.53;;;;;;;-139.48;100.00;61774.03;5019998;28;20052;-66
2021/05/02 05:06:31;;;;;;;10.10;6.38;;;;;;;-139.48;100.00;61774.03;5035007;28;20049;-66
2021/05/02 05:09:15;;;;;;;;;;;;;;;-139.48;100.00;61774.03;5020616;28;20056;-66
2021/05/02 05:11:59;;;;;;;6.57;5.90;;;;;;;-139.48;100.00;61774.03;5034849;28;19920;-66
2021/05/02 05:14:42;;;;;;;8.45;7.13;;;;;;;-139.48;100.00;61774.03;5035033;28;20052;-66
2021/05/02 05:17:26;;;;;;;8.85;7.63;;;;;;;-139.48;100.00;61774.03;5034906;28;20576;-66
2021/05/02 05:20:11;;;;;;;13.32;6.50;;;;;;;-139.48;100.00;61774.03;5019654;28;20052;-67
2021/05/02 05:22:55;;;;;;;8.50;6.18;;;;;;;-139.48;100.00;61774.03;5019947;28;20076;-66
2021/05/02 05:25:39;;;;;;;10.75;8.70;;;;;;;-139.48;100.00;61774.03;5034595;28;20457;-66
2021/05/02 05:28:25;;;;;;;7.78;6.95;;;;;;;-139.48;100.00;61774.03;5019729;28;20405;-66
2021/05/02 05:31:10;;;;;;;6.10;5.40;;;;;;;-139.48;100.00;61774.03;5006170;28;20099;-66
2021/05/02 05:33:53;;;;;;;9.77;7.40;;;;;;;-139.48;100.00;61774.03;5034384;28;20406;-66
2021/05/02 05:36:37;;;;;;;11.98;9.38;;;;;;;-139.48;100.00;61774.03;5034678;28;20056;-66
2021/05/02 05:39:21;;;;;;;12.02;9.32;;;;;;;-139.48;100.00;61774.03;5034332;28;20135;-66
2021/05/02 05:42:05;;;;;;;10.70;9.40;;;;;;;-139.48;100.00;61774.03;5019600;28;20048;-66
2021/05/02 05:44:50;;;;;;;14.27;9.73;;;;;;;-139.48;100.00;61774.03;5019211;28;20052;-66
2021/05/02 05:47:34;;;;;;;13.23;10.02;;;;;;;-139.48;100.00;61774.03;5019292;28;20056;-66
2021/05/02 05:50:19;;;;;;;13.30;9.80;;;;;;;-139.48;100.00;61774.03;5034386;28;20084;-66
2021/05/02 05:53:03;;;;;;;10.00;8.95;;;;;;;-139.48;100.00;61774.03;5019121;28;20103;-66
2021/05/02 05:55:47;;;;;;;12.82;9.98;;;;;;;-139.48;100.00;61774.03;5019183;28;20132;-66
2021/05/02 05:58:32;;;;;;;14.63;9.90;;;;;;;-139.48;100.00;61774.03;5033917;28;20064;-65
2021/05/02 06:01:16;;;;;;;12.93;9.73;;;;;;;-139.48;100.00;61774.03;5034224;28;20418;-66
2021/05/02 06:04:00;;;;;;;12.63;9.80;;;;;;;-139.48;100.00;61774.03;5034150;28;20110;-66
2021/05/02 06:06:45;;;;;;;13.07;9.75;;;;;;;-139.48;100.00;61774.03;5033825;28;20091;-66
2021/05/02 06:09:29;;;;;;;13.65;10.38;;;;;;;-139.48;100.00;61774.03;5019196;28;20517;-66
2021/05/02 06:12:13;;;;;;;13.90;10.65;;;;;;;-139.48;100.00;61774.03;5034034;28;20112;-66
2021/05/02 06:14:57;;;;;;;13.57;10.73;;;;;;;-139.48;100.00;61774.03;5033611;28;20532;-66
2021/05/02 06:17:41;;;;;;;16.45;11.38;;;;;;;-139.48;100.00;61774.03;5018900;28;20084;-66
2021/05/02 06:20:25;;;;;;;19.08;11.25;;;;;;;-139.48;100.00;61774.03;5033608;28;20072;-66
2021/05/02 06:23:09;;;;;;;14.25;11.05;;;;;;;-139.48;100.00;61774.03;5033558;28;20044;-66
2021/05/02 06:25:53;;;;;;;13.07;10.73;;;;;;;-139.48;100.00;61774.03;5033848;28;20171;-66
2021/05/02 06:28:37;;;;;;;14.13;11.15;;;;;;;-139.48;100.00;61774.03;5033401;28;20105;-66
2021/05/02 06:31:21;;;;;;;12.20;10.93;;;;;;;-139.48;100.00;61774.03;5032976;28;20053;-66
2021/05/02 06:34:08;;;;;;;16.30;10.60;;;;;;;-139.48;100.00;61774.03;5018746;28;20095;-67
2021/05/02 06:36:58;;;;;;;12.80;11.35;;;;;;;-139.48;100.00;61774.03;5033493;28;20107;-67
2021/05/02 06:39:42;;;;;;;13.05;10.35;;;;;;;-139.48;100.00;61774.03;5033685;28;20060;-65
2021/05/02 06:42:26;;;;;;;15.13;11.25;;;;;;;-139.48;100.00;61774.03;5018614;28;20167;-66
2021/05/02 06:45:10;;;;;;;14.25;9.98;;;;;;;-139.48;100.00;61774.03;5018559;28;20048;-66
2021/05/02 06:47:55;;;;;;;14.25;10.57;;;;;;;-139.48;100.00;61774.03;5018088;28;20125;-66
2021/05/02 06:50:39;;;;;;;13.55;10.63;;;;;;;-139.48;100.00;61774.03;5032532;28;20048;-66
2021/05/02 06:53:22;;;;;;;13.07;10.57;;;;;;;-139.48;100.00;61774.03;5017820;28;20052;-66
2021/05/02 06:56:10;;;;;;;13.80;10.20;;;;;;;-139.48;100.00;61774.03;5032735;28;20615;-66
2021/05/02 06:58:55;;;;;;;12.98;10.02;;;;;;;-139.48;100.00;61774.03;5032330;28;20060;-66
2021/05/02 07:01:39;;;;;;;16.48;10.90;;;;;;;-139.48;100.00;61774.03;5017760;28;20044;-66
2021/05/02 07:04:23;;;;;;;14.05;10.80;;;;;;;-139.48;100.00;61774.03;5003695;28;20044;-66
2021/05/02 07:07:07;;;;;;;12.40;10.65;;;;;;;-139.48;100.00;61774.03;5017586;28;20048;-66
2021/05/02 07:09:50;;;;;;;14.27;11.65;;;;;;;-139.48;100.00;61774.03;5032446;28;20394;-66
2021/05/02 07:12:34;;;;;;;13.32;11.00;;;;;;;-139.48;100.00;61774.03;5003697;28;20056;-64
2021/05/02 07:15:18;;;;;;;12.73;11.30;;;;;;;-139.48;100.00;61774.03;5017291;28;20461;-66
2021/05/02 07:18:02;;;;;;;15.00;11.07;;;;;;;-139.48;100.00;61774.03;5032529;28;20135;-66
2021/05/02 07:20:48;;;;;;;14.07;11.20;;;;;;;-139.48;100.00;61774.03;5032477;28;20468;-66
2021/05/02 07:23:35;;;;;;;15.50;11.23;;;;;;;-139.48;100.00;61774.03;5032564;28;20437;-66
2021/05/02 07:26:21;;;;;;;13.63;11.68;;;;;;;-139.48;100.00;61774.03;5032401;28;20052;-66
2021/05/02 07:29:05;;;;;;;14.77;11.32;;;;;;;-139.48;100.00;61774.03;5032370;28;20060;-64
2021/05/02 07:31:49;;;;;;;15.88;11.52;;;;;;;-139.48;100.00;61774.03;5017379;28;20128;-66
2021/05/02 07:34:32;;;;;;;15.43;12.20;;;;;;;-139.48;100.00;61774.03;5017169;28;20048;-66
2021/05/02 07:37:17;;;;;;;15.52;11.02;;;;;;;-139.48;100.00;61774.03;5003170;28;20075;-66
2021/05/02 07:40:03;;;;;;;18.23;11.82;;;;;;;-139.48;100.00;61774.03;5017476;28;20091;-67
2021/05/02 07:42:47;;;;;;;17.27;12.27;;;;;;;-139.48;100.00;61774.03;5033498;28;20056;-67
2021/05/02 07:45:31;;;;;;;14.48;12.23;;;;;;;-139.48;100.00;61774.03;5020791;28;20076;-67
2021/05/02 07:48:15;;;;;;;17.42;12.73;;;;;;;-139.48;100.00;61774.03;5020701;28;20147;-65
2021/05/02 07:50:59;;;;;;;15.98;12.30;;;;;;;-139.48;100.00;61774.03;5036259;28;20088;-67
2021/05/02 07:53:42;;;;;;;16.92;12.93;;;;;;;-139.48;100.00;61774.03;5035854;28;20056;-66
2021/05/02 07:56:26;;;;;;;18.85;12.93;;;;;;;-139.48;100.00;61774.03;5035933;28;20060;-67
2021/05/02 07:59:10;;;;;;;18.73;13.23;;;;;;;-139.48;100.00;61774.03;5020762;28;20052;-66
2021/05/02 08:01:54;;;;;;;16.83;13.65;;;;;;;-139.48;100.00;61774.03;5020989;28;20417;-66
2021/05/02 08:04:39;;;;;;;14.60;12.18;;;;;;;-139.48;100.00;61774.03;5035713;28;20048;-66
2021/05/02 08:07:23;;;;;;;16.90;13.38;;;;;;;-139.48;100.00;61774.03;5036991;28;20080;-69
2021/05/02 08:10:07;;;;;;;15.57;12.82;;;;;;;-139.48;100.00;61774.03;5006725;28;20092;-68
2021/05/02 08:12:53;;;;;;;18.48;13.32;;;;;;;-139.48;100.00;61774.03;5020430;28;20052;-69
2021/05/02 08:15:37;;;;;;;16.80;12.80;;;;;;;-139.48;100.00;61774.03;5020442;28;20163;-69
2021/05/02 08:18:21;;;;;;;18.02;13.43;;;;;;;-139.48;100.00;61774.03;5020108;28;20117;-69
2021/05/02 08:21:09;;;;;;;17.85;13.73;;;;;;;-139.48;100.00;61774.03;5035281;28;20076;-68
2021/05/02 08:23:53;;;;;;;18.35;13.10;;;;;;;-139.48;100.00;61774.03;5020760;28;20509;-69
2021/05/02 08:26:38;;;;;;;19.63;13.95;;;;;;;-139.48;100.00;61774.03;5035072;28;20107;-69
2021/05/02 08:29:22;;;;;;;16.42;13.88;;;;;;;-139.48;100.00;61774.03;5020282;28;20520;-69
2021/05/02 08:32:06;;;;;;;17.55;14.20;;;;;;;-139.48;100.00;61774.03;5019990;28;20079;-68
2021/05/02 08:34:51;;;;;;;18.33;13.45;;;;;;;-139.48;100.00;61774.03;5035115;28;20468;-69
2021/05/02 08:37:36;;;;;;;17.08;13.60;;;;;;;-139.48;100.00;61774.03;5035030;28;20132;-69
2021/05/02 08:40:20;;;;;;;17.25;13.40;;;;;;;-139.48;100.00;61774.03;5019772;28;20044;-69
2021/05/02 08:43:05;;;;;;;19.38;14.07;;;;;;;-139.48;100.00;61774.03;5020059;28;20137;-69
2021/05/02 08:45:49;;;;;;;17.02;13.95;;;;;;;-139.48;100.00;61774.03;5019787;28;20103;-69
2021/05/02 08:48:33;;;;;;;19.63;14.85;;;;;;;-139.48;100.00;61774.03;5019637;28;20056;-68
2021/05/02 08:51:18;;;;;;;17.58;14.48;;;;;;;-139.48;100.00;61774.03;5034620;28;20422;-69
2021/05/02 08:54:02;;;;;;;21.42;15.50;;;;;;;-139.48;100.00;61774.03;5005213;28;20454;-69
2021/05/02 08:56:46;;;;;;;17.70;14.10;;;;;;;-139.48;100.00;61774.03;5034720;28;20044;-69
2021/05/02 08:59:30;;;;;;;18.55;14.55;;;;;;;-139.48;100.00;61774.03;5019507;28;20123;-69
2021/05/02 09:02:21;;;;;;;19.38;14.15;;;;;;;-139.48;100.00;61774.03;5019607;28;20053;-68
2021/05/02 09:05:06;;;;;;;25.35;15.10;;;;;;;-139.48;100.00;61774.03;5019502;28;20052;-69
2021/05/02 09:07:50;;;;;;;19.00;15.00;;;;;;;-139.48;100.00;61774.03;5034238;28;20056;-69
2021/05/02 09:10:35;;;;;;;19.92;15.45;;;;;;;-139.48;100.00;61774.03;5005338;28;20055;-69
2021/05/02 09:13:19;;;;;;;19.95;15.32;;;;;;;-139.48;100.00;61774.03;5005459;28;20103;-69
2021/05/02 09:16:06;;;;;;;21.08;14.65;;;;;;;-139.48;100.00;61774.03;5034316;28;20090;-68
2021/05/02 09:18:57;;;;;;;18.38;14.80;;;;;;;-139.48;100.00;61774.03;5019693;28;20107;-69
2021/05/02 09:21:41;;;;;;;18.52;14.65;;;;;;;-139.48;100.00;61774.03;5019259;28;20203;-69
2021/05/02 09:24:31;;;;;;;21.23;15.48;;;;;;;-139.48;100.00;61774.03;5019154;28;20087;-69
2021/05/02 09:27:16;;;;;;;17.40;14.30;;;;;;;-139.48;100.00;61774.03;5034166;28;20040;-69
2021/05/02 09:30:33;;;;;;;17.27;14.15;;;;;;;-139.48;100.00;61774.03;5018958;28;20056;-69
2021/05/02 09:33:26;;;;;;;15.82;13.98;;;;;;;-139.48;100.00;61774.03;5008290;28;20087;-69
2021/05/02 09:36:13;;;;;;;20.42;15.43;;;;;;;-139.48;100.00;61774.03;5018546;28;20171;-68
2021/05/02 09:38:57;;;;;;;20.63;15.40;;;;;;;-139.48;100.00;61774.03;5004732;28;20122;-69
2021/05/02 09:41:41;;;;;;;20.10;15.68;;;;;;;-139.48;100.00;61774.03;5004803;28;20103;-69
2021/05/02 09:44:40;;;;;;;18.75;15.85;;;;;;;-139.48;100.00;61774.03;5033771;28;20095;-68
2021/05/02 09:47:28;;;;;;;20.50;15.30;;;;;;;-139.48;100.00;61774.03;5004626;28;20053;-69
2021/05/02 09:50:19;;;;;;;20.88;15.10;;;;;;;-139.48;100.00;61774.03;5033488;28;20048;-69
2021/05/02 09:53:06;;;;;;;18.45;14.70;;;;;;;-139.48;100.00;61774.03;5018411;28;20087;-69
2021/05/02 09:55:50;;;;;;;17.10;13.25;;;;;;;-139.48;100.00;61774.03;5033655;28;20624;-69
2021/05/02 09:58:34;;;;;;;21.23;16.52;;;;;;;-139.48;100.00;61774.03;5033230;28;20271;-69
2021/05/02 10:01:18;;;;;;;21.17;16.90;;;;;;;-139.48;100.00;61774.03;5033257;28;20044;-70
2021/05/02 10:04:02;;;;;;;19.42;14.63;;;;;;;-139.48;100.00;61774.03;5033122;28;20040;-70
2021/05/02 10:06:46;;;;;;;13.32;11.93;;;;;;;-139.48;100.00;61774.03;5017293;28;20522;-69
2021/05/02 10:09:30;;;;;;;15.00;10.90;;;;;;;-139.48;100.00;61774.03;5018122;28;20084;-69
2021/05/02 10:12:15;;;;;;;20.75;16.80;;;;;;;-139.48;100.00;61774.03;5033485;28;20126;-69
2021/05/02 10:15:00;;;;;;;18.25;14.23;;;;;;;-139.48;100.00;61774.03;5018245;28;20053;-69
2021/05/02 10:17:46;;;;;;;14.10;10.20;;;;;;;-139.48;100.00;61774.03;5033096;28;20171;-69
2021/05/02 10:20:29;;;;;;;13.77;11.90;;;;;;;-139.48;100.00;61774.03;5033399;28;20099;-69
2021/05/02 10:23:14;;;;;;;19.25;16.40;;;;;;;-139.48;100.00;61774.03;5017908;28;20126;-69
2021/05/02 10:25:58;;;;;;;18.92;16.90;;;;;;;-139.48;100.00;61774.03;5032971;28;20048;-69
2021/05/02 10:28:46;;;;;;;20.48;17.00;;;;;;;-139.48;100.00;61774.03;5003861;28;20048;-69
2021/05/02 10:31:30;;;;;;;22.92;16.38;;;;;;;-139.48;100.00;61774.03;5017787;28;20183;-69
2021/05/02 10:34:34;;;;;;;20.10;16.02;;;;;;;-139.48;100.00;61774.03;5017854;28;20151;-68
2021/05/02 10:37:25;;;;;;;;;;;;;;;-139.48;100.00;61774.03;5018321;28;20059;-69
2021/05/02 10:40:19;;;;;;;13.63;11.93;;;;;;;-139.48;100.00;61774.03;5032858;28;19919;-69
2021/05/02 10:43:07;;;;;;;13.82;10.82;;;;;;;-139.48;100.00;61774.03;5017772;28;20114;-69
2021/05/02 10:45:51;;;;;;;15.00;11.77;;;;;;;-139.48;100.00;61774.03;5017799;28;20072;-69
2021/05/02 10:48:36;;;;;;;12.57;9.15;;;;;;;-139.48;100.00;61774.03;5017928;28;20065;-69
2021/05/02 10:51:25;;;;;;;10.55;8.55;;;;;;;-139.48;100.00;61774.03;5003964;28;20211;-70
2021/05/02 10:54:22;;;;;;;8.80;7.90;;;;;;;-139.48;100.00;61774.03;5017326;28;20111;-69
2021/05/02 10:57:08;;;;;;;9.38;7.72;;;;;;;-139.48;100.00;61774.03;5032650;28;20521;-69
2021/05/02 10:59:58;;;;;;;9.05;8.15;;;;;;;-139.48;100.00;61774.03;5017889;28;20513;-69
2021/05/02 11:02:45;;;;;;;8.95;8.15;;;;;;;-139.48;100.00;61774.03;5032492;28;20060;-69
2021/05/02 11:05:46;;;;;;;10.88;8.27;;;;;;;-139.48;100.00;61774.03;5017790;28;20043;-68
2021/05/02 11:08:49;;;;;;;10.07;8.13;;;;;;;-139.48;100.00;61774.03;5017279;28;20103;-68
2021/05/02 11:11:38;;;;;;;10.07;7.50;;;;;;;-139.48;100.00;61774.03;5032676;28;20107;-69
2021/05/02 11:14:22;;;;;;;7.88;7.07;;;;;;;-139.48;100.00;61774.03;5017983;28;20057;-69
2021/05/02 11:17:06;;;;;;;9.07;7.25;;;;;;;-139.48;100.00;61774.03;5032602;28;20072;-69
2021/05/02 11:19:52;;;;;;;9.65;7.65;;;;;;;-139.48;100.00;61774.03;5036360;28;20048;-69
2021/05/02 11:22:46;;;;;;;10.57;7.13;;;;;;;-139.48;100.00;61774.03;5022094;28;20091;-69
2021/05/02 11:25:36;;;;;;;7.65;6.95;;;;;;;-139.48;100.00;61774.03;5007703;28;20406;-69
2021/05/02 11:28:35;;;;;;;8.43;6.20;;;;;;;-139.48;100.00;61774.03;5007237;28;20107;-69
2021/05/02 11:31:19;;;;;;;9.20;5.10;;;;;;;-139.48;100.00;61774.03;5036193;28;20076;-68
2021/05/02 11:34:06;;;;;;;7.20;5.60;;;;;;;-139.48;100.00;61774.03;5007374;28;20044;-69
2021/05/02 11:36:50;;;;;;;8.13;5.15;;;;;;;-139.48;100.00;61774.03;5020945;28;20114;-69
2021/05/02 11:39:35;;;;;;;8.38;5.85;;;;;;;-139.48;100.00;61774.03;5021259;28;20505;-69
2021/05/02 11:42:19;;;;;;;8.90;6.85;;;;;;;-139.48;100.00;61774.03;5035958;28;20053;-69
2021/05/02 11:45:05;;;;;;;8.10;6.10;;;;;;;-139.48;100.00;61774.03;5021166;28;20043;-69
2021/05/02 11:47:49;;;;;;;6.30;5.63;;;;;;;-139.48;100.00;61774.03;5021079;28;20103;-69
2021/05/02 11:50:40;;;;;;;7.10;6.40;;;;;;;-139.48;100.00;61774.03;5020862;28;20051;-69
2021/05/02 11:53:36;;;;;;;6.82;6.13;;;;;;;-139.48;100.00;61774.03;5020591;28;20045;-69
2021/05/02 11:56:32;;;;;;;6.30;5.70;;;;;;;-139.48;100.00;61774.03;5036075;28;20056;-69
2021/05/02 11:59:16;;;;;;;7.90;6.18;;;;;;;-139.48;100.00;61774.03;5006803;28;20039;-70
2021/05/02 12:02:01;;;;;;;6.28;5.60;;;;;;;-139.48;100.00;61774.03;5035568;28;20048;-67
2021/05/02 12:04:45;;;;;;;5.88;5.07;;;;;;;-139.48;100.00;61774.03;5020779;28;20501;-70
2021/05/02 12:07:28;;;;;;;6.47;5.15;;;;;;;-139.48;100.00;61774.03;5020326;28;20083;-69
2021/05/02 12:10:20;;;;;;;5.30;4.80;;;;;;;-139.48;100.00;61774.03;5020405;28;20056;-70
2021/05/02 12:13:05;;;;;;;6.05;5.03;;;;;;;-139.48;100.00;61774.03;5020444;28;20525;-69
2021/05/02 12:16:03;;;;;;;8.35;4.78;;;;;;;-139.48;100.00;61774.03;5020414;28;20476;-70
2021/05/02 12:18:57;;;;;;;7.60;5.18;;;;;;;-139.48;100.00;61774.03;5020431;28;20260;-69
2021/05/02 12:21:43;;;;;;;;;;;;;;;-139.48;100.00;61774.03;5035891;28;20120;-70
2021/05/02 12:24:29;;;;;;;5.78;4.00;;;;;;;-139.48;100.00;61774.03;5035195;28;19923;-69
2021/05/02 12:27:14;;;;;;;5.25;4.75;;;;;;;-139.48;100.00;61774.03;5020029;28;20559;-69
2021/05/02 12:29:58;;;;;;;4.57;4.00;;;;;;;-139.48;100.00;61774.03;5033922;28;20457;-69
2021/05/02 12:32:42;;;;;;;4.78;4.28;;;;;;;-139.48;100.00;61774.03;5035248;28;20056;-69